createdAt,value
2022-08-04T00:03:23.138Z,13.78
2022-08-04T00:08:49.793Z,14.19
2022-08-04T00:14:03.984Z,13.64
2022-08-04T00:19:18.958Z,13.91
2022-08-04T00:24:22.613Z,13.98
2022-08-04T00:29:25.770Z,14.04
2022-08-04T00:34:31.639Z,14.14
2022-08-04T00:39:35.068Z,14.05
2022-08-04T00:45:03.430Z,13.53
2022-08-04T00:50:25.514Z,13.33
2022-08-04T00:55:53.976Z,13.09
2022-08-04T01:01:04.706Z,12.78
2022-08-04T01:06:19.136Z,12.94
2022-08-04T01:11:57.255Z,13.26
2022-08-04T01:17:18.564Z,13.50
2022-08-04T01:22:43.824Z,13.71
2022-08-04T01:28:05.009Z,13.85
2022-08-04T01:33:17.665Z,13.65
2022-08-04T01:38:24.478Z,14.17
2022-08-04T01:43:29.143Z,13.92
2022-08-04T01:48:32.257Z,14.00
2022-08-04T01:53:44.290Z,13.29
2022-08-04T01:58:46.578Z,13.26
2022-08-04T02:04:20.715Z,13.28
2022-08-04T02:09:22.499Z,13.70
2022-08-04T02:14:41.306Z,13.51
2022-08-04T02:20:01.856Z,13.43
2022-08-04T02:25:09.794Z,13.47
2022-08-04T02:30:12.392Z,13.35
2022-08-04T02:35:27.553Z,13.39
2022-08-04T02:40:31.809Z,13.68
2022-08-04T02:45:40.272Z,13.65
2022-08-04T02:50:44.692Z,13.77
2022-08-04T02:55:50.997Z,13.82
2022-08-04T03:00:55.794Z,13.84
2022-08-04T03:06:13.571Z,13.82
2022-08-04T03:11:43.419Z,13.52
2022-08-04T03:17:04.965Z,13.37
2022-08-04T03:22:26.614Z,13.31
2022-08-04T03:27:47.633Z,13.54
2022-08-04T03:33:26.061Z,13.59
2022-08-04T03:38:58.807Z,13.54
2022-08-04T03:44:01.095Z,13.13
2022-08-04T03:49:32.911Z,12.95
2022-08-04T03:55:16.014Z,12.76
2022-08-04T04:00:58.371Z,12.79
2022-08-04T04:06:19.733Z,12.95
2022-08-04T04:11:57.121Z,12.91
2022-08-04T04:17:14.089Z,12.96
2022-08-04T04:22:53.809Z,13.27
2022-08-04T04:28:45.055Z,13.59
2022-08-04T04:34:16.982Z,14.06
2022-08-04T04:39:40.800Z,14.52
2022-08-04T04:45:08.098Z,14.83
2022-08-04T04:50:36.702Z,14.97
2022-08-04T04:55:57.067Z,15.23
2022-08-04T05:01:11.398Z,15.44
2022-08-04T05:06:47.044Z,15.32
2022-08-04T05:14:31.988Z,16.36
2022-08-04T05:18:03.128Z,17.62
2022-08-04T05:23:08.313Z,18.51
2022-08-04T05:28:18.246Z,19.40
2022-08-04T05:33:29.297Z,20.16
2022-08-04T05:38:36.497Z,20.75
2022-08-04T05:43:43.205Z,21.40
2022-08-04T05:48:47.271Z,22.12
2022-08-04T05:53:50.798Z,22.77
2022-08-04T05:58:54.540Z,23.24
2022-08-04T06:03:59.308Z,23.94
2022-08-04T06:09:01.763Z,24.29
2022-08-04T06:14:08.108Z,24.73
2022-08-04T06:20:01.889Z,25.84
2022-08-04T06:24:39.578Z,28.60
2022-08-04T06:29:50.818Z,32.22
2022-08-04T06:34:59.740Z,35.20
2022-08-04T06:40:29.970Z,37.24
2022-08-04T06:45:27.605Z,37.82
2022-08-04T06:51:32.066Z,38.30
2022-08-04T06:55:54.223Z,37.57
2022-08-04T07:01:02.234Z,37.39
2022-08-04T07:06:05.585Z,36.10
2022-08-04T07:11:15.267Z,35.51
2022-08-04T07:16:19.942Z,35.46
2022-08-04T07:21:23.743Z,35.69
2022-08-04T07:26:30.597Z,35.69
2022-08-04T07:31:36.148Z,35.87
2022-08-04T07:36:50.109Z,35.54
2022-08-04T07:41:54.539Z,36.11
2022-08-04T07:46:56.851Z,34.47
2022-08-04T07:52:00.006Z,34.93
2022-08-04T07:57:04.182Z,34.28
2022-08-04T08:02:06.634Z,34.23
2022-08-04T08:07:09.039Z,34.32
2022-08-04T08:12:35.879Z,34.69
2022-08-04T08:17:58.126Z,34.48
2022-08-04T08:23:03.409Z,34.40
2022-08-04T08:28:08.861Z,34.87
2022-08-04T08:33:15.674Z,35.00
2022-08-04T08:38:25.594Z,34.98
2022-08-04T08:44:03.933Z,35.17
2022-08-04T08:50:02.020Z,34.36
2022-08-04T08:55:14.321Z,34.14
2022-08-04T09:00:39.255Z,33.65
2022-08-04T09:06:02.699Z,33.98
2022-08-04T09:11:17.523Z,34.31
2022-08-04T09:16:28.166Z,34.64
2022-08-04T09:21:59.404Z,34.90
2022-08-04T09:27:05.786Z,35.38
2022-08-04T09:32:17.038Z,33.75
2022-08-04T09:37:45.779Z,34.16
2022-08-04T09:42:59.315Z,34.78
2022-08-04T09:48:14.348Z,35.07
2022-08-04T09:53:35.217Z,34.52
2022-08-04T09:58:51.582Z,34.94
2022-08-04T10:03:59.744Z,35.23
2022-08-04T10:09:30.124Z,34.88
2022-08-04T10:14:39.288Z,34.68
2022-08-04T10:19:42.473Z,35.50
2022-08-04T10:26:03.389Z,35.11
2022-08-04T10:30:50.174Z,35.49
2022-08-04T10:36:00.763Z,34.32
2022-08-04T10:41:32.296Z,33.19
2022-08-04T10:46:44.650Z,33.84
2022-08-04T10:52:28.323Z,32.38
2022-08-04T10:57:37.279Z,31.79
2022-08-04T11:03:00.010Z,31.40
2022-08-04T11:08:14.339Z,32.79
2022-08-04T11:13:22.127Z,32.81
2022-08-04T11:19:04.707Z,32.29
2022-08-04T11:24:18.670Z,31.49
2022-08-04T11:29:41.205Z,30.49
2022-08-04T11:34:52.605Z,30.50
2022-08-04T11:40:10.158Z,30.04
2022-08-04T11:45:25.441Z,30.25
2022-08-04T11:50:53.859Z,31.64
2022-08-04T11:56:08.279Z,35.75
2022-08-04T12:01:35.387Z,35.40
2022-08-04T12:07:30.094Z,32.01
2022-08-04T12:12:50.981Z,31.04
2022-08-04T12:18:28.286Z,31.93
2022-08-04T12:23:41.880Z,31.63
2022-08-04T12:29:09.731Z,31.10
2022-08-04T12:34:21.395Z,30.66
2022-08-04T12:39:27.438Z,31.37
2022-08-04T12:44:39.055Z,31.64
2022-08-04T12:49:46.652Z,32.49
2022-08-04T12:55:02.555Z,32.87
2022-08-04T13:00:06.084Z,32.76
2022-08-04T13:05:17.234Z,32.85
2022-08-04T13:10:30.683Z,32.92
2022-08-04T13:21:49.554Z,32.17
2022-08-04T13:27:03.314Z,31.35
2022-08-04T13:30:23.936Z,32.51
2022-08-04T13:32:07.579Z,31.04
2022-08-04T13:37:22.001Z,31.01
2022-08-04T13:42:27.490Z,30.98
2022-08-04T13:47:34.341Z,30.88
2022-08-04T13:52:39.135Z,31.15
2022-08-04T13:57:53.008Z,31.12
2022-08-04T14:03:23.612Z,31.16
2022-08-04T14:08:31.512Z,30.91
2022-08-04T14:13:41.259Z,30.86
2022-08-04T14:18:44.006Z,30.70
2022-08-04T14:23:56.560Z,30.69
2022-08-04T14:29:28.666Z,30.58
2022-08-04T14:34:33.916Z,30.58
2022-08-04T14:40:08.165Z,30.51
2022-08-04T14:45:12.340Z,30.28
2022-08-04T14:50:15.652Z,30.34
2022-08-04T14:55:27.250Z,30.37
2022-08-04T15:00:36.527Z,30.00
2022-08-04T15:06:01.545Z,29.92
2022-08-04T15:11:08.986Z,29.85
2022-08-04T15:16:12.166Z,29.73
2022-08-04T15:21:15.834Z,29.75
2022-08-04T15:26:45.101Z,29.87
2022-08-04T15:32:06.131Z,29.80
2022-08-04T15:37:37.607Z,29.64
2022-08-04T15:42:48.937Z,29.52
2022-08-04T15:48:13.820Z,29.31
2022-08-04T15:53:23.084Z,29.13
2022-08-04T15:58:50.345Z,29.12
2022-08-04T16:04:00.931Z,29.11
2022-08-04T16:09:05.638Z,29.05
2022-08-04T16:14:12.237Z,29.09
2022-08-04T16:19:49.640Z,29.01
2022-08-04T16:24:52.723Z,28.85
2022-08-04T16:30:05.543Z,28.48
2022-08-04T16:35:42.534Z,28.35
2022-08-04T16:46:09.256Z,28.14
2022-08-04T16:51:34.851Z,27.93
2022-08-04T16:56:38.233Z,27.61
2022-08-04T17:01:52.063Z,27.51
2022-08-04T17:07:00.134Z,27.01
2022-08-04T17:12:03.930Z,26.10
2022-08-04T17:17:08.706Z,25.75
2022-08-04T17:22:11.470Z,25.35
2022-08-04T17:28:08.657Z,24.59
2022-08-04T17:32:44.958Z,24.26
2022-08-04T17:37:52.627Z,23.56
2022-08-04T17:44:04.923Z,23.27
2022-08-04T17:48:28.995Z,22.93
2022-08-04T17:54:01.255Z,22.72
2022-08-04T17:59:56.148Z,22.22
2022-08-04T18:10:27.599Z,21.68
2022-08-04T18:15:44.340Z,21.51
2022-08-04T18:20:50.178Z,21.46
2022-08-04T18:25:52.776Z,21.16
2022-08-04T18:30:56.665Z,20.94
2022-08-04T18:36:33.964Z,20.81
2022-08-04T18:41:22.261Z,20.67
2022-08-04T18:46:26.870Z,20.35
2022-08-04T18:51:30.956Z,20.27
2022-08-04T18:56:34.205Z,20.24
2022-08-04T19:02:13.637Z,19.73
2022-08-04T19:07:24.568Z,19.50
2022-08-04T19:12:27.183Z,19.29
2022-08-04T19:17:56.899Z,19.19
2022-08-04T19:24:28.691Z,19.03
2022-08-04T19:28:19.582Z,18.93
2022-08-04T19:33:30.106Z,18.75
2022-08-04T19:38:48.701Z,18.49
2022-08-04T19:43:54.798Z,18.22
2022-08-04T19:48:59.778Z,18.15
2022-08-04T19:54:14.903Z,17.97
2022-08-04T19:59:19.839Z,17.80
2022-08-04T20:04:22.050Z,17.65
2022-08-04T20:09:27.049Z,17.40
2022-08-04T20:14:39.354Z,17.37
2022-08-04T20:19:42.653Z,17.41
2022-08-04T20:25:01.000Z,17.31
2022-08-04T20:30:19.093Z,17.37
2022-08-04T20:35:26.663Z,17.48
2022-08-04T20:40:31.002Z,17.55
2022-08-04T20:45:57.010Z,17.75
2022-08-04T20:50:57.055Z,17.65
2022-08-04T20:56:02.707Z,17.51
2022-08-04T21:01:11.145Z,17.13
2022-08-04T21:06:17.247Z,16.57
2022-08-04T21:11:22.646Z,16.52
2022-08-04T21:16:54.138Z,16.68
2022-08-04T21:21:50.082Z,16.80
2022-08-04T21:26:57.255Z,17.07
2022-08-04T21:32:28.899Z,17.28
2022-08-04T21:37:57.802Z,17.27
2022-08-04T21:42:54.630Z,17.42
2022-08-04T21:47:56.712Z,17.25
2022-08-04T21:52:59.137Z,17.17
2022-08-04T21:58:04.839Z,17.27
2022-08-04T22:03:23.271Z,17.24
2022-08-04T22:08:30.640Z,17.21
2022-08-04T22:13:52.490Z,17.40
2022-08-04T22:18:55.254Z,17.21
2022-08-04T22:24:00.732Z,17.01
2022-08-04T22:29:07.219Z,16.98
2022-08-04T22:34:17.030Z,16.83
2022-08-04T22:39:23.457Z,16.82
2022-08-04T22:44:29.596Z,17.14
2022-08-04T22:49:37.215Z,17.01
2022-08-04T22:54:40.696Z,17.03
2022-08-04T22:59:43.459Z,16.64
2022-08-04T23:04:45.835Z,16.56
2022-08-04T23:09:53.515Z,16.62
2022-08-04T23:14:58.276Z,16.57
2022-08-04T23:20:00.752Z,16.51
2022-08-04T23:25:03.869Z,16.65
2022-08-04T23:30:07.956Z,16.79
2022-08-04T23:35:15.182Z,16.64
2022-08-04T23:40:32.995Z,16.82
2022-08-04T23:46:04.609Z,16.59
2022-08-04T23:51:14.697Z,16.63
2022-08-04T23:56:19.789Z,16.73
